createdAt,value
2023-03-16T00:00:37.909Z,100.00
2023-03-16T00:05:41.874Z,99.15
2023-03-16T00:10:47.295Z,99.62
2023-03-16T00:15:52.315Z,99.35
2023-03-16T00:20:55.758Z,100.00
2023-03-16T00:26:03.115Z,99.83
2023-03-16T00:31:06.459Z,99.50
2023-03-16T00:36:11.326Z,99.21
2023-03-16T00:41:16.968Z,100.00
2023-03-16T00:46:27.000Z,100.00
2023-03-16T00:51:28.802Z,99.40
2023-03-16T00:56:34.989Z,99.64
2023-03-16T01:01:39.217Z,99.18
2023-03-16T01:06:43.463Z,99.52
2023-03-16T01:11:49.365Z,99.31
2023-03-16T01:16:53.798Z,99.23
2023-03-16T01:21:58.297Z,99.16
2023-03-16T01:27:03.315Z,98.32
2023-03-16T01:32:05.516Z,97.97
2023-03-16T01:37:09.654Z,96.85
2023-03-16T01:42:48.299Z,96.03
2023-03-16T01:47:50.879Z,95.80
2023-03-16T01:52:55.035Z,93.98
2023-03-16T01:57:56.978Z,92.75
2023-03-16T02:03:16.374Z,91.54
2023-03-16T02:08:27.385Z,90.34
2023-03-16T02:13:32.656Z,89.26
2023-03-16T02:18:39.618Z,87.22
2023-03-16T02:23:44.203Z,86.39
2023-03-16T02:29:19.570Z,87.21
2023-03-16T02:34:23.319Z,86.89
2023-03-16T02:39:25.483Z,88.15
2023-03-16T02:44:33.670Z,87.51
2023-03-16T02:49:42.310Z,86.97
2023-03-16T02:54:46.248Z,86.53
2023-03-16T02:59:48.691Z,86.20
2023-03-16T03:04:54.431Z,86.31
2023-03-16T03:09:58.531Z,87.60
2023-03-16T03:15:00.595Z,88.03
2023-03-16T03:20:13.880Z,88.32
2023-03-16T03:25:18.273Z,88.97
2023-03-16T03:30:22.292Z,88.48
2023-03-16T03:35:26.480Z,88.78
2023-03-16T03:40:29.555Z,87.28
2023-03-16T03:45:34.651Z,87.36
2023-03-16T03:50:38.499Z,85.83
2023-03-16T03:56:02.237Z,85.54
2023-03-16T04:01:08.612Z,85.21
2023-03-16T04:06:11.151Z,85.55
2023-03-16T04:11:13.043Z,84.18
2023-03-16T04:16:16.258Z,84.00
2023-03-16T04:21:20.985Z,84.82
2023-03-16T04:26:22.804Z,84.42
2023-03-16T04:31:24.905Z,84.64
2023-03-16T04:36:26.922Z,85.37
2023-03-16T04:41:29.165Z,85.35
2023-03-16T04:46:36.322Z,86.34
2023-03-16T04:51:42.567Z,86.63
2023-03-16T04:56:48.944Z,86.42
2023-03-16T05:02:12.496Z,86.69
2023-03-16T05:07:16.800Z,86.93
2023-03-16T05:12:25.995Z,86.87
2023-03-16T05:17:33.898Z,86.38
2023-03-16T05:22:35.872Z,85.56
2023-03-16T05:27:54.270Z,86.00
2023-03-16T05:33:06.982Z,85.23
2023-03-16T05:38:10.078Z,83.66
2023-03-16T05:43:15.852Z,82.47
2023-03-16T05:48:26.240Z,81.60
2023-03-16T05:53:35.521Z,80.75
2023-03-16T05:58:55.853Z,79.67
2023-03-16T06:04:02.920Z,79.71
2023-03-16T06:09:13.867Z,79.80
2023-03-16T06:14:16.825Z,79.57
2023-03-16T06:19:24.274Z,80.17
2023-03-16T06:24:33.731Z,79.14
2023-03-16T06:29:41.259Z,79.28
2023-03-16T06:34:46.508Z,79.38
2023-03-16T06:39:48.288Z,78.98
2023-03-16T06:44:50.305Z,78.58
2023-03-16T06:49:54.398Z,78.05
2023-03-16T06:54:59.100Z,77.39
2023-03-16T07:00:04.320Z,77.65
2023-03-16T07:05:11.173Z,77.46
2023-03-16T07:10:17.540Z,77.16
2023-03-16T07:15:21.893Z,76.81
2023-03-16T07:20:23.888Z,77.14
2023-03-16T07:25:31.570Z,76.72
2023-03-16T07:30:36.637Z,76.25
2023-03-16T07:35:39.634Z,76.02
2023-03-16T07:40:46.249Z,75.23
2023-03-16T07:45:55.794Z,75.07
2023-03-16T07:50:59.591Z,74.56
2023-03-16T07:56:02.337Z,73.85
2023-03-16T08:01:06.913Z,73.95
2023-03-16T08:06:10.837Z,73.43
2023-03-16T08:11:23.676Z,73.31
2023-03-16T08:16:31.896Z,72.94
2023-03-16T08:21:49.236Z,72.51
2023-03-16T08:27:01.332Z,73.02
2023-03-16T08:32:07.535Z,72.43
2023-03-16T08:37:20.773Z,71.34
2023-03-16T08:42:23.950Z,71.46
2023-03-16T08:47:33.189Z,71.32
2023-03-16T08:52:38.673Z,70.74
2023-03-16T08:57:40.415Z,70.87
2023-03-16T09:02:44.617Z,71.59
2023-03-16T09:07:49.108Z,71.14
2023-03-16T09:12:53.967Z,70.99
2023-03-16T09:18:00.621Z,69.84
2023-03-16T09:23:04.780Z,68.80
2023-03-16T09:28:10.489Z,67.36
2023-03-16T09:33:12.339Z,67.41
2023-03-16T09:38:17.670Z,67.81
2023-03-16T09:43:40.894Z,65.76
2023-03-16T09:48:42.647Z,64.26
2023-03-16T09:53:47.966Z,64.22
2023-03-16T09:59:32.739Z,63.03
2023-03-16T10:10:56.113Z,63.12
2023-03-16T10:16:05.795Z,63.09
2023-03-16T10:21:18.263Z,63.22
2023-03-16T10:26:29.709Z,63.12
2023-03-16T10:31:35.011Z,61.33
2023-03-16T10:36:39.880Z,61.06
2023-03-16T10:42:10.446Z,61.34
2023-03-16T10:47:19.203Z,62.35
2023-03-16T10:52:27.422Z,61.75
2023-03-16T10:57:34.364Z,60.92
2023-03-16T11:02:39.200Z,61.25
2023-03-16T11:08:12.564Z,61.24
2023-03-16T11:13:20.144Z,62.42
2023-03-16T11:18:45.476Z,63.62
2023-03-16T11:23:55.095Z,62.75
2023-03-16T11:29:09.307Z,63.12
2023-03-16T11:34:19.374Z,62.63
2023-03-16T11:39:31.170Z,62.92
2023-03-16T11:44:37.753Z,62.64
2023-03-16T11:50:23.384Z,60.33
2023-03-16T11:55:46.702Z,60.55
2023-03-16T12:01:08.674Z,59.03
2023-03-16T12:06:23.572Z,59.09
2023-03-16T12:11:28.862Z,60.96
2023-03-16T12:16:48.698Z,61.52
2023-03-16T12:22:10.329Z,62.46
2023-03-16T12:27:22.677Z,62.69
2023-03-16T12:32:47.004Z,61.57
2023-03-16T12:38:20.541Z,62.07
2023-03-16T12:43:40.653Z,64.50
2023-03-16T12:48:56.512Z,63.63
2023-03-16T12:54:04.106Z,64.56
2023-03-16T12:59:11.619Z,65.99
2023-03-16T13:04:32.411Z,68.85
2023-03-16T13:09:42.189Z,70.55
2023-03-16T13:14:44.685Z,70.73
2023-03-16T13:20:04.524Z,73.05
2023-03-16T13:25:18.854Z,75.85
2023-03-16T13:30:23.684Z,77.62
2023-03-16T13:35:29.541Z,78.34
2023-03-16T13:40:31.528Z,82.08
2023-03-16T13:45:38.776Z,83.99
2023-03-16T13:50:44.812Z,85.92
2023-03-16T13:55:49.992Z,85.88
2023-03-16T14:00:56.830Z,85.54
2023-03-16T14:05:58.777Z,86.59
2023-03-16T14:11:03.755Z,88.22
2023-03-16T14:16:13.979Z,88.21
2023-03-16T14:21:35.891Z,89.28
2023-03-16T14:26:46.325Z,87.43
2023-03-16T14:31:50.789Z,85.89
2023-03-16T14:36:53.049Z,83.85
2023-03-16T14:41:54.864Z,82.37
2023-03-16T14:47:07.350Z,80.48
2023-03-16T14:52:33.676Z,78.52
2023-03-16T14:57:36.440Z,76.85
2023-03-16T15:02:40.775Z,76.06
2023-03-16T15:07:45.376Z,74.87
2023-03-16T15:13:04.031Z,74.08
2023-03-16T15:18:07.174Z,71.33
2023-03-16T15:23:13.857Z,69.88
2023-03-16T15:28:17.512Z,68.73
2023-03-16T15:33:19.890Z,68.57
2023-03-16T15:38:29.962Z,66.90
2023-03-16T15:43:31.975Z,67.33
2023-03-16T15:48:36.260Z,67.77
2023-03-16T15:53:44.501Z,67.40
2023-03-16T15:58:46.990Z,68.16
2023-03-16T16:03:51.863Z,68.31
2023-03-16T16:08:56.134Z,67.55
2023-03-16T16:14:01.054Z,67.85
2023-03-16T16:19:02.854Z,67.78
2023-03-16T16:24:07.235Z,67.80
2023-03-16T16:29:17.529Z,66.59
2023-03-16T16:34:24.664Z,67.30
2023-03-16T16:39:27.608Z,67.43
2023-03-16T16:44:40.464Z,67.30
2023-03-16T16:49:42.312Z,65.30
2023-03-16T16:54:44.289Z,65.50
2023-03-16T16:59:49.458Z,64.99
2023-03-16T17:04:51.780Z,66.10
2023-03-16T17:09:58.618Z,65.89
2023-03-16T17:15:06.725Z,65.51
2023-03-16T17:20:20.907Z,65.79
2023-03-16T17:25:23.202Z,66.23
2023-03-16T17:30:30.375Z,65.99
2023-03-16T17:35:34.376Z,66.20
2023-03-16T17:40:38.766Z,65.95
2023-03-16T17:45:42.971Z,65.84
2023-03-16T17:50:50.316Z,66.14
2023-03-16T17:55:54.353Z,64.71
2023-03-16T18:00:56.614Z,64.70
2023-03-16T18:06:00.786Z,65.06
2023-03-16T18:11:11.832Z,63.71
2023-03-16T18:16:23.226Z,63.75
2023-03-16T18:21:28.292Z,63.42
2023-03-16T18:26:30.073Z,63.70
2023-03-16T18:31:34.111Z,63.79
2023-03-16T18:36:38.436Z,62.94
2023-03-16T18:41:40.179Z,63.61
2023-03-16T18:46:42.262Z,64.12
2023-03-16T18:51:47.389Z,62.51
2023-03-16T18:56:49.716Z,63.08
2023-03-16T19:01:54.440Z,63.97
2023-03-16T19:07:03.917Z,63.83
2023-03-16T19:12:11.490Z,64.25
2023-03-16T19:17:16.408Z,64.52
2023-03-16T19:22:21.924Z,65.92
2023-03-16T19:27:26.304Z,65.67
2023-03-16T19:32:33.111Z,67.18
2023-03-16T19:37:35.114Z,66.77
2023-03-16T19:42:37.726Z,66.89
2023-03-16T19:47:41.874Z,67.39
2023-03-16T19:52:44.136Z,68.24
2023-03-16T19:57:49.404Z,68.86
2023-03-16T20:02:55.339Z,69.17
2023-03-16T20:08:01.017Z,69.25
2023-03-16T20:13:07.574Z,69.55
2023-03-16T20:18:14.599Z,70.37
2023-03-16T20:23:27.125Z,71.05
2023-03-16T20:28:37.219Z,71.10
2023-03-16T20:33:38.974Z,70.67
2023-03-16T20:38:43.298Z,71.63
2023-03-16T20:43:48.184Z,71.42
2023-03-16T20:48:50.040Z,71.64
2023-03-16T20:53:54.085Z,71.39
2023-03-16T20:59:00.701Z,71.18
2023-03-16T21:04:07.337Z,70.75
2023-03-16T21:09:11.565Z,71.70
2023-03-16T21:14:18.291Z,71.21
2023-03-16T21:19:24.954Z,71.13
2023-03-16T21:24:29.002Z,72.24
2023-03-16T21:29:30.995Z,71.81
2023-03-16T21:34:37.907Z,73.19
2023-03-16T21:39:39.666Z,74.05
2023-03-16T21:44:46.324Z,74.42
2023-03-16T21:49:48.170Z,75.11
2023-03-16T21:54:52.805Z,74.59
2023-03-16T21:59:54.603Z,75.16
2023-03-16T22:04:58.932Z,75.68
2023-03-16T22:10:03.052Z,76.42
2023-03-16T22:15:10.291Z,76.62
2023-03-16T22:20:22.776Z,77.00
2023-03-16T22:25:26.658Z,77.44
2023-03-16T22:30:28.546Z,77.69
2023-03-16T22:35:36.461Z,77.64
2023-03-16T22:40:41.466Z,77.79
2023-03-16T22:45:43.613Z,77.79
2023-03-16T22:50:48.576Z,78.43
2023-03-16T22:55:51.636Z,78.94
2023-03-16T23:00:55.815Z,78.51
2023-03-16T23:05:57.739Z,79.08
2023-03-16T23:11:01.854Z,79.38
2023-03-16T23:16:04.019Z,80.49
2023-03-16T23:21:10.365Z,80.55
2023-03-16T23:26:16.593Z,81.66
2023-03-16T23:31:22.225Z,82.03
2023-03-16T23:36:27.204Z,82.83
2023-03-16T23:41:29.052Z,83.36
2023-03-16T23:46:30.985Z,83.90
2023-03-16T23:51:39.123Z,84.63
2023-03-16T23:56:43.357Z,84.63
